createdAt,value
2019-02-17T00:00:38.278Z,7.80
2019-02-17T00:03:06.770Z,7.80
2019-02-17T00:05:35.220Z,8.28
2019-02-17T00:08:03.719Z,7.15
2019-02-17T00:10:32.203Z,6.97
2019-02-17T00:13:00.683Z,8.40
2019-02-17T00:15:29.203Z,6.90
2019-02-17T00:17:57.654Z,8.03
2019-02-17T00:20:26.101Z,7.25
2019-02-17T00:22:54.607Z,7.60
2019-02-17T00:25:23.090Z,8.30
2019-02-17T00:27:51.536Z,7.87
2019-02-17T00:30:20.034Z,7.60
2019-02-17T00:32:48.531Z,7.35
2019-02-17T00:35:16.927Z,7.70
2019-02-17T00:37:45.494Z,7.20
2019-02-17T00:40:13.963Z,6.62
2019-02-17T00:42:42.458Z,6.80
2019-02-17T00:45:10.992Z,7.00
2019-02-17T00:47:39.521Z,7.87
2019-02-17T00:50:09.077Z,8.05
2019-02-17T00:52:37.562Z,7.45
2019-02-17T00:55:06.611Z,6.85
2019-02-17T00:57:35.092Z,7.30
2019-02-17T01:00:05.280Z,8.20
2019-02-17T01:02:33.791Z,7.03
2019-02-17T01:05:02.287Z,7.08
2019-02-17T01:07:30.772Z,6.37
2019-02-17T01:09:59.247Z,7.60
2019-02-17T01:12:27.694Z,6.92
2019-02-17T01:14:56.298Z,7.03
2019-02-17T01:17:24.780Z,7.28
2019-02-17T01:19:53.198Z,7.00
2019-02-17T01:22:21.684Z,7.08
2019-02-17T01:24:50.135Z,6.95
2019-02-17T01:27:18.706Z,6.92
2019-02-17T01:29:47.291Z,6.20
2019-02-17T01:32:15.749Z,6.58
2019-02-17T01:34:44.249Z,6.33
2019-02-17T01:37:12.833Z,7.15
2019-02-17T01:39:42.791Z,7.28
2019-02-17T01:42:11.331Z,8.58
2019-02-17T01:44:39.826Z,8.20
2019-02-17T01:47:08.290Z,8.60
2019-02-17T01:49:36.774Z,7.17
2019-02-17T01:52:05.259Z,7.85
2019-02-17T01:54:34.655Z,6.87
2019-02-17T01:57:03.133Z,6.33
2019-02-17T01:59:32.025Z,7.17
2019-02-17T02:02:00.470Z,7.10
2019-02-17T02:04:28.927Z,6.62
2019-02-17T02:07:10.580Z,7.53
2019-02-17T02:09:39.024Z,7.58
2019-02-17T02:12:07.471Z,7.80
2019-02-17T02:14:35.967Z,7.40
2019-02-17T02:17:04.410Z,7.15
2019-02-17T02:19:32.856Z,7.45
2019-02-17T02:22:01.347Z,8.15
2019-02-17T02:24:29.788Z,6.55
2019-02-17T02:26:58.271Z,7.25
2019-02-17T02:29:26.721Z,6.40
2019-02-17T02:31:55.180Z,6.80
2019-02-17T02:34:23.672Z,6.30
2019-02-17T02:36:52.115Z,6.30
2019-02-17T02:39:20.563Z,7.17
2019-02-17T02:41:49.056Z,6.25
2019-02-17T02:44:17.499Z,7.37
2019-02-17T02:46:45.956Z,6.58
2019-02-17T02:49:14.443Z,6.53
2019-02-17T02:51:42.933Z,5.60
2019-02-17T02:54:11.323Z,6.20
2019-02-17T02:56:39.799Z,5.30
2019-02-17T02:59:08.248Z,6.20
2019-02-17T03:01:36.710Z,6.45
2019-02-17T03:04:05.238Z,6.70
2019-02-17T03:06:35.197Z,6.78
2019-02-17T03:09:04.147Z,5.92
2019-02-17T03:11:32.726Z,5.92
2019-02-17T03:14:01.196Z,6.12
2019-02-17T03:16:29.688Z,6.40
2019-02-17T03:18:58.138Z,6.53
2019-02-17T03:21:26.588Z,6.47
2019-02-17T03:23:55.033Z,5.70
2019-02-17T03:26:23.535Z,5.20
2019-02-17T03:28:52.096Z,5.33
2019-02-17T03:31:20.541Z,5.20
2019-02-17T03:33:49.020Z,6.15
2019-02-17T03:36:17.541Z,5.10
2019-02-17T03:38:45.956Z,5.95
2019-02-17T03:41:14.403Z,6.03
2019-02-17T03:43:42.980Z,5.47
2019-02-17T03:46:11.443Z,6.15
2019-02-17T03:48:39.887Z,5.97
2019-02-17T03:51:08.424Z,5.80
2019-02-17T03:53:36.827Z,6.33
2019-02-17T03:56:05.282Z,5.75
2019-02-17T03:58:33.779Z,6.37
2019-02-17T04:01:02.227Z,5.03
2019-02-17T04:03:30.674Z,6.15
2019-02-17T04:05:59.209Z,6.05
2019-02-17T04:08:27.638Z,5.45
2019-02-17T04:10:56.081Z,5.75
2019-02-17T04:13:24.651Z,6.33
2019-02-17T04:15:53.107Z,7.45
2019-02-17T04:18:21.555Z,5.95
2019-02-17T04:20:50.047Z,5.12
2019-02-17T04:23:18.496Z,5.10
2019-02-17T04:25:47.058Z,4.80
2019-02-17T04:28:15.539Z,6.30
2019-02-17T04:30:43.983Z,4.95
2019-02-17T04:33:12.429Z,6.10
2019-02-17T04:35:40.921Z,5.80
2019-02-17T04:38:09.364Z,6.00
2019-02-17T04:40:37.855Z,9.45
2019-02-17T04:43:06.425Z,11.65
2019-02-17T04:45:34.897Z,9.40
2019-02-17T04:48:03.351Z,8.08
2019-02-17T04:50:31.850Z,6.78
2019-02-17T04:53:00.310Z,7.08
2019-02-17T04:55:28.832Z,6.83
2019-02-17T04:57:57.343Z,7.20
2019-02-17T05:00:25.998Z,6.35
2019-02-17T05:02:54.470Z,6.37
2019-02-17T05:05:22.932Z,5.95
2019-02-17T05:07:51.446Z,5.20
2019-02-17T05:10:19.889Z,6.10
2019-02-17T05:12:48.357Z,4.90
2019-02-17T05:15:16.800Z,5.72
2019-02-17T05:17:45.374Z,5.92
2019-02-17T05:20:13.847Z,5.25
2019-02-17T05:22:42.292Z,5.47
2019-02-17T05:25:10.789Z,6.12
2019-02-17T05:27:39.294Z,6.28
2019-02-17T05:30:09.314Z,6.00
2019-02-17T05:32:37.846Z,5.28
2019-02-17T05:35:06.478Z,5.97
2019-02-17T05:37:34.935Z,5.50
2019-02-17T05:40:04.315Z,5.85
2019-02-17T05:42:32.774Z,6.12
2019-02-17T05:45:01.227Z,5.58
2019-02-17T05:47:29.808Z,11.22
2019-02-17T05:49:58.287Z,8.73
2019-02-17T05:52:26.771Z,5.67
2019-02-17T05:54:55.221Z,5.58
2019-02-17T05:57:23.664Z,5.78
2019-02-17T05:59:52.152Z,5.92
2019-02-17T06:02:20.595Z,5.65
2019-02-17T06:04:49.053Z,5.15
2019-02-17T06:07:17.651Z,6.00
2019-02-17T06:09:46.139Z,5.37
2019-02-17T06:12:14.587Z,5.97
2019-02-17T06:14:43.099Z,5.85
2019-02-17T06:17:11.583Z,5.30
2019-02-17T06:19:40.161Z,5.58
2019-02-17T06:22:08.643Z,4.85
2019-02-17T06:24:37.121Z,4.92
2019-02-17T06:27:05.563Z,5.28
2019-02-17T06:29:34.072Z,5.20
2019-02-17T06:32:02.669Z,5.50
2019-02-17T06:34:31.106Z,6.05
2019-02-17T06:36:59.547Z,5.47
2019-02-17T06:39:28.112Z,7.40
2019-02-17T06:41:56.596Z,6.72
2019-02-17T06:44:25.043Z,6.60
2019-02-17T06:46:54.927Z,6.28
2019-02-17T06:49:23.380Z,6.20
2019-02-17T06:51:51.829Z,6.62
2019-02-17T06:54:20.433Z,6.92
2019-02-17T06:56:50.554Z,7.10
2019-02-17T06:59:19.023Z,6.55
2019-02-17T07:01:47.516Z,6.53
2019-02-17T07:04:15.912Z,7.90
2019-02-17T07:06:46.020Z,7.03
2019-02-17T07:09:14.438Z,7.08
2019-02-17T07:11:42.976Z,6.95
2019-02-17T07:14:11.561Z,7.40
2019-02-17T07:16:40.027Z,6.47
2019-02-17T07:19:08.683Z,6.28
2019-02-17T07:21:37.208Z,6.03
2019-02-17T07:24:05.595Z,5.85
2019-02-17T07:26:34.111Z,5.70
2019-02-17T07:29:02.555Z,6.35
2019-02-17T07:31:34.825Z,7.15
2019-02-17T07:34:01.144Z,6.55
2019-02-17T07:36:29.583Z,7.10
2019-02-17T07:38:58.119Z,6.15
2019-02-17T07:41:26.698Z,6.33
2019-02-17T07:43:55.196Z,7.50
2019-02-17T07:46:23.758Z,6.12
2019-02-17T07:49:11.593Z,5.58
2019-02-17T07:51:40.178Z,6.92
2019-02-17T07:54:08.658Z,6.10
2019-02-17T07:56:37.139Z,5.87
2019-02-17T07:59:05.576Z,6.55
2019-02-17T08:01:33.999Z,6.15
2019-02-17T08:04:02.500Z,7.85
2019-02-17T08:06:30.941Z,9.15
2019-02-17T08:08:59.390Z,7.30
2019-02-17T08:11:27.879Z,7.67
2019-02-17T08:13:56.404Z,9.40
2019-02-17T08:16:24.888Z,9.33
2019-02-17T08:18:53.469Z,8.63
2019-02-17T08:21:21.941Z,10.93
2019-02-17T08:23:50.843Z,12.67
2019-02-17T08:26:19.296Z,12.43
2019-02-17T08:28:48.004Z,12.20
2019-02-17T08:31:16.443Z,12.87
2019-02-17T08:33:45.381Z,16.90
2019-02-17T08:36:14.179Z,20.00
2019-02-17T08:38:43.059Z,21.63
2019-02-17T08:41:11.950Z,20.90
2019-02-17T08:43:40.763Z,23.43
2019-02-17T08:46:09.629Z,22.87
2019-02-17T08:48:38.521Z,24.80
2019-02-17T08:51:07.353Z,25.90
2019-02-17T08:53:36.201Z,27.60
2019-02-17T08:56:05.086Z,25.07
2019-02-17T08:58:33.982Z,28.57
2019-02-17T09:01:02.771Z,28.07
2019-02-17T09:03:31.762Z,29.40
2019-02-17T09:06:00.653Z,29.60
2019-02-17T09:08:29.544Z,26.73
2019-02-17T09:10:58.540Z,30.23
2019-02-17T09:13:27.421Z,32.10
2019-02-17T09:15:56.420Z,31.20
2019-02-17T09:18:25.306Z,31.00
2019-02-17T09:20:54.204Z,31.93
2019-02-17T09:23:23.093Z,36.07
2019-02-17T09:25:52.009Z,37.40
2019-02-17T09:28:20.870Z,37.13
2019-02-17T09:30:49.759Z,37.73
2019-02-17T09:33:18.652Z,37.07
2019-02-17T09:35:47.649Z,36.80
2019-02-17T09:38:17.185Z,36.97
2019-02-17T09:40:46.864Z,35.67
2019-02-17T09:43:15.859Z,37.13
2019-02-17T09:45:44.850Z,36.10
2019-02-17T09:48:13.744Z,35.40
2019-02-17T09:50:42.632Z,37.87
2019-02-17T09:53:11.524Z,37.50
2019-02-17T09:55:40.515Z,38.30
2019-02-17T09:58:09.509Z,39.23
2019-02-17T10:00:38.404Z,42.83
2019-02-17T10:03:07.293Z,41.70
2019-02-17T10:05:36.184Z,41.00
2019-02-17T10:08:05.176Z,42.23
2019-02-17T10:10:34.064Z,39.87
2019-02-17T10:13:02.955Z,42.00
2019-02-17T10:15:31.847Z,43.70
2019-02-17T10:18:00.840Z,44.23
2019-02-17T10:20:29.731Z,43.90
2019-02-17T10:22:58.548Z,43.23
2019-02-17T10:25:27.401Z,45.37
2019-02-17T10:27:56.403Z,43.30
2019-02-17T10:30:25.298Z,44.97
2019-02-17T10:32:54.183Z,43.07
2019-02-17T10:35:23.179Z,46.13
2019-02-17T10:37:52.071Z,45.13
2019-02-17T10:40:20.960Z,44.37
2019-02-17T10:42:49.792Z,44.67
2019-02-17T10:45:18.652Z,44.17
2019-02-17T10:47:47.631Z,45.10
2019-02-17T10:50:16.491Z,42.47
2019-02-17T10:52:45.412Z,46.30
2019-02-17T10:55:15.327Z,39.70
2019-02-17T10:57:44.320Z,42.53
2019-02-17T11:00:17.923Z,42.20
2019-02-17T11:02:47.709Z,43.10
2019-02-17T11:05:18.058Z,40.00
2019-02-17T11:07:47.051Z,38.40
2019-02-17T11:10:15.912Z,39.07
2019-02-17T11:12:44.937Z,38.80
2019-02-17T11:15:19.251Z,37.90
2019-02-17T11:17:48.144Z,36.83
2019-02-17T11:20:17.005Z,39.20
2019-02-17T11:22:45.925Z,36.97
2019-02-17T11:25:14.820Z,34.87
2019-02-17T11:27:43.809Z,33.20
2019-02-17T11:30:18.423Z,33.20
2019-02-17T11:32:57.203Z,32.27
2019-02-17T11:35:17.858Z,29.90
2019-02-17T11:37:51.432Z,32.43
2019-02-17T11:40:20.346Z,31.23
2019-02-17T11:42:49.238Z,32.47
2019-02-17T11:45:19.308Z,31.67
2019-02-17T11:47:48.247Z,29.67
2019-02-17T11:50:17.057Z,30.93
2019-02-17T11:52:46.029Z,31.23
2019-02-17T11:55:16.462Z,30.80
2019-02-17T11:57:45.450Z,29.60
2019-02-17T12:00:22.533Z,28.90
2019-02-17T12:02:51.425Z,28.23
2019-02-17T12:05:20.313Z,28.27
2019-02-17T12:07:49.306Z,28.03
2019-02-17T12:10:18.300Z,27.23
2019-02-17T12:12:47.311Z,25.67
2019-02-17T12:15:16.938Z,25.60
2019-02-17T12:17:45.827Z,25.40
2019-02-17T12:20:39.052Z,25.70
2019-02-17T12:23:09.476Z,25.50
2019-02-17T12:25:42.776Z,25.40
2019-02-17T12:28:13.199Z,25.10
2019-02-17T12:30:43.422Z,25.47
2019-02-17T12:33:18.515Z,27.40
2019-02-17T12:35:42.945Z,26.67
2019-02-17T12:38:11.835Z,25.93
2019-02-17T12:40:40.827Z,25.33
2019-02-17T12:43:09.719Z,27.90
2019-02-17T12:45:38.701Z,25.73
2019-02-17T12:48:07.604Z,26.30
2019-02-17T12:50:36.596Z,25.77
2019-02-17T12:53:05.487Z,25.53
2019-02-17T12:55:34.483Z,25.70
2019-02-17T12:58:03.370Z,25.67
2019-02-17T13:00:31.851Z,23.40
2019-02-17T13:03:00.333Z,25.03
2019-02-17T13:05:28.916Z,25.30
2019-02-17T13:07:57.398Z,23.00
2019-02-17T13:10:25.876Z,25.33
2019-02-17T13:12:54.368Z,23.60
2019-02-17T13:15:22.840Z,25.17
2019-02-17T13:17:52.973Z,23.03
2019-02-17T13:20:21.468Z,23.93
2019-02-17T13:22:49.926Z,23.70
2019-02-17T13:25:19.072Z,21.00
2019-02-17T13:27:47.554Z,23.30
2019-02-17T13:30:17.516Z,23.60
2019-02-17T13:32:45.935Z,23.40
2019-02-17T13:35:14.430Z,24.40
2019-02-17T13:37:42.879Z,23.30
2019-02-17T13:40:13.180Z,24.87
2019-02-17T13:42:41.634Z,25.13
2019-02-17T13:45:11.673Z,24.80
2019-02-17T13:47:40.127Z,23.97
2019-02-17T13:50:12.951Z,23.10
2019-02-17T13:52:41.415Z,22.20
2019-02-17T13:55:10.826Z,24.10
2019-02-17T13:57:39.349Z,23.87
2019-02-17T14:00:09.324Z,22.23
2019-02-17T14:02:37.723Z,24.17
2019-02-17T14:05:07.431Z,24.87
2019-02-17T14:07:35.891Z,23.17
2019-02-17T14:10:05.387Z,25.13
2019-02-17T14:12:33.909Z,24.80
2019-02-17T14:15:02.365Z,26.27
2019-02-17T14:17:30.843Z,23.93
2019-02-17T14:19:59.320Z,23.97
2019-02-17T14:22:27.910Z,24.23
2019-02-17T14:24:56.387Z,22.83
2019-02-17T14:27:24.915Z,21.70
2019-02-17T14:29:53.453Z,23.20
2019-02-17T14:32:21.935Z,20.13
2019-02-17T14:34:50.511Z,24.27
2019-02-17T14:37:20.128Z,22.37
2019-02-17T14:39:49.039Z,23.30
2019-02-17T14:42:18.012Z,21.27
2019-02-17T14:44:47.048Z,21.90
2019-02-17T14:47:15.893Z,22.83
2019-02-17T14:49:44.784Z,22.40
2019-02-17T14:52:13.776Z,21.83
2019-02-17T14:54:42.668Z,23.27
2019-02-17T14:57:11.558Z,21.90
2019-02-17T14:59:40.449Z,21.70
2019-02-17T15:02:09.284Z,22.43
2019-02-17T15:04:38.236Z,22.20
2019-02-17T15:07:07.223Z,21.60
2019-02-17T15:09:36.109Z,18.97
2019-02-17T15:12:05.111Z,20.67
2019-02-17T15:14:34.102Z,21.57
2019-02-17T15:17:02.991Z,21.90
2019-02-17T15:19:31.883Z,20.30
2019-02-17T15:22:00.816Z,19.80
2019-02-17T15:24:29.766Z,19.23
2019-02-17T15:26:58.641Z,20.13
2019-02-17T15:29:27.651Z,18.93
2019-02-17T15:31:56.500Z,22.00
2019-02-17T15:34:24.958Z,20.13
2019-02-17T15:36:53.914Z,20.30
2019-02-17T15:39:22.905Z,20.97
2019-02-17T15:41:52.001Z,20.40
2019-02-17T15:44:20.835Z,21.30
2019-02-17T15:46:49.784Z,20.80
2019-02-17T15:49:18.672Z,20.33
2019-02-17T15:51:47.163Z,18.40
2019-02-17T15:54:15.737Z,17.07
2019-02-17T15:56:44.214Z,17.10
2019-02-17T15:59:12.671Z,17.50
2019-02-17T16:01:41.179Z,16.43
2019-02-17T16:04:10.079Z,16.33
2019-02-17T16:06:38.487Z,16.43
2019-02-17T16:09:07.135Z,16.40
2019-02-17T16:11:35.550Z,15.80
2019-02-17T16:14:04.117Z,17.90
2019-02-17T16:16:32.612Z,17.17
2019-02-17T16:19:01.161Z,15.37
2019-02-17T16:21:29.627Z,16.90
2019-02-17T16:23:58.226Z,16.77
2019-02-17T16:26:26.810Z,16.77
2019-02-17T16:28:55.287Z,16.40
2019-02-17T16:31:23.745Z,21.20
2019-02-17T16:33:52.252Z,19.30
2019-02-17T16:36:20.694Z,16.87
2019-02-17T16:38:49.215Z,16.93
2019-02-17T16:41:17.779Z,16.37
2019-02-17T16:43:46.195Z,15.70
2019-02-17T16:46:14.655Z,15.83
2019-02-17T16:48:43.241Z,16.30
2019-02-17T16:51:11.825Z,16.10
2019-02-17T16:53:40.311Z,16.60
2019-02-17T16:56:08.815Z,15.53
2019-02-17T16:58:37.271Z,15.93
2019-02-17T17:01:05.730Z,17.10
2019-02-17T17:03:34.223Z,16.00
2019-02-17T17:06:02.817Z,18.60
2019-02-17T17:08:31.268Z,18.23
2019-02-17T17:10:59.770Z,18.33
2019-02-17T17:13:31.126Z,18.30
2019-02-17T17:15:59.660Z,18.30
2019-02-17T17:18:28.311Z,15.73
2019-02-17T17:20:57.487Z,15.40
2019-02-17T17:23:25.932Z,16.20
2019-02-17T17:25:54.387Z,15.97
2019-02-17T17:28:22.891Z,15.33
2019-02-17T17:30:51.362Z,15.70
2019-02-17T17:33:19.813Z,15.37
2019-02-17T17:35:48.304Z,16.43
2019-02-17T17:38:16.762Z,20.03
2019-02-17T17:40:45.210Z,22.93
2019-02-17T17:43:13.754Z,19.60
2019-02-17T17:45:42.195Z,18.17
2019-02-17T17:48:10.663Z,21.33
2019-02-17T17:50:39.202Z,19.30
2019-02-17T17:53:07.642Z,20.30
2019-02-17T17:55:36.129Z,19.65
2019-02-17T17:58:04.633Z,20.08
2019-02-17T18:00:34.655Z,21.60
2019-02-17T18:03:03.122Z,25.40
2019-02-17T18:05:31.624Z,30.50
2019-02-17T18:08:00.102Z,64.80
2019-02-17T18:10:28.575Z,63.00
2019-02-17T18:12:57.089Z,36.15
2019-02-17T18:15:25.616Z,29.42
2019-02-17T18:17:55.086Z,25.10
2019-02-17T18:20:23.652Z,23.38
2019-02-17T18:22:52.123Z,20.52
2019-02-17T18:25:20.617Z,20.77
2019-02-17T18:27:49.103Z,21.82
2019-02-17T18:30:18.177Z,21.57
2019-02-17T18:32:46.663Z,21.68
2019-02-17T18:35:19.895Z,21.50
2019-02-17T18:37:45.279Z,21.73
2019-02-17T18:40:14.631Z,22.70
2019-02-17T18:42:43.380Z,21.80
2019-02-17T18:45:15.606Z,22.70
2019-02-17T18:47:44.363Z,22.87
2019-02-17T18:50:13.944Z,21.70
2019-02-17T18:52:42.431Z,21.90
2019-02-17T18:55:11.801Z,20.32
2019-02-17T18:57:49.498Z,22.00
2019-02-17T19:00:11.842Z,20.70
2019-02-17T19:02:40.292Z,20.60
2019-02-17T19:05:09.587Z,22.40
2019-02-17T19:07:38.045Z,19.95
2019-02-17T19:10:08.192Z,20.02
2019-02-17T19:12:36.680Z,21.00
2019-02-17T19:15:06.327Z,24.30
2019-02-17T19:17:35.031Z,25.00
2019-02-17T19:20:03.694Z,25.23
2019-02-17T19:22:32.172Z,21.30
2019-02-17T19:25:00.614Z,27.25
2019-02-17T19:27:29.336Z,23.38
2019-02-17T19:29:57.785Z,23.60
2019-02-17T19:32:26.241Z,21.30
2019-02-17T19:34:54.732Z,23.27
2019-02-17T19:37:23.223Z,20.77
2019-02-17T19:39:51.655Z,20.37
2019-02-17T19:42:20.127Z,21.40
2019-02-17T19:44:48.595Z,20.52
2019-02-17T19:47:17.045Z,21.85
2019-02-17T19:49:45.556Z,23.38
2019-02-17T19:52:14.121Z,21.90
2019-02-17T19:54:42.593Z,21.10
2019-02-17T19:57:11.130Z,21.10
2019-02-17T19:59:39.687Z,19.73
2019-02-17T20:02:08.151Z,21.48
2019-02-17T20:04:38.220Z,18.90
2019-02-17T20:07:06.714Z,20.45
2019-02-17T20:09:35.161Z,20.50
2019-02-17T20:12:03.603Z,20.55
2019-02-17T20:14:32.093Z,21.42
2019-02-17T20:17:00.555Z,21.07
2019-02-17T20:19:29.071Z,18.57
2019-02-17T20:21:57.536Z,20.43
2019-02-17T20:24:26.027Z,21.10
2019-02-17T20:26:54.483Z,19.70
2019-02-17T20:29:22.972Z,19.32
2019-02-17T20:31:51.473Z,19.98
2019-02-17T20:34:19.920Z,19.62
2019-02-17T20:36:48.384Z,19.12
2019-02-17T20:39:16.892Z,19.85
2019-02-17T20:41:45.352Z,20.92
2019-02-17T20:44:13.797Z,21.37
2019-02-17T20:46:42.597Z,21.87
2019-02-17T20:49:11.058Z,20.62
2019-02-17T20:51:39.515Z,23.15
2019-02-17T20:54:08.008Z,23.02
2019-02-17T20:56:36.457Z,21.70
2019-02-17T20:59:04.911Z,24.60
2019-02-17T21:01:33.414Z,24.40
2019-02-17T21:04:01.869Z,22.95
2019-02-17T21:06:30.335Z,21.35
2019-02-17T21:08:58.929Z,21.17
2019-02-17T21:11:27.580Z,21.60
2019-02-17T21:13:56.086Z,20.32
2019-02-17T21:16:24.566Z,21.12
2019-02-17T21:18:53.010Z,21.80
2019-02-17T21:21:21.491Z,20.95
2019-02-17T21:23:49.983Z,21.00
2019-02-17T21:26:18.525Z,21.15
2019-02-17T21:28:47.000Z,19.20
2019-02-17T21:31:15.487Z,19.10
2019-02-17T21:33:43.931Z,19.50
2019-02-17T21:36:22.579Z,21.48
2019-02-17T21:38:42.530Z,20.15
2019-02-17T21:41:11.050Z,20.45
2019-02-17T21:43:39.531Z,21.62
2019-02-17T21:46:07.936Z,22.95
2019-02-17T21:48:36.436Z,22.07
2019-02-17T21:51:24.174Z,21.20
2019-02-17T21:53:52.668Z,20.92
2019-02-17T21:56:21.188Z,20.72
2019-02-17T21:58:49.683Z,22.40
2019-02-17T22:01:18.182Z,20.75
2019-02-17T22:03:46.735Z,20.10
2019-02-17T22:06:15.229Z,21.60
2019-02-17T22:08:43.724Z,21.50
2019-02-17T22:11:12.179Z,20.75
2019-02-17T22:13:40.644Z,22.87
2019-02-17T22:16:09.134Z,24.00
2019-02-17T22:18:37.620Z,23.12
2019-02-17T22:21:06.038Z,22.37
2019-02-17T22:23:34.582Z,21.97
2019-02-17T22:26:03.065Z,22.07
2019-02-17T22:28:31.539Z,23.27
2019-02-17T22:31:00.027Z,21.75
2019-02-17T22:33:28.485Z,22.93
2019-02-17T22:35:56.943Z,21.20
2019-02-17T22:38:25.426Z,20.90
2019-02-17T22:40:53.888Z,21.82
2019-02-17T22:43:22.431Z,20.30
2019-02-17T22:45:50.841Z,19.75
2019-02-17T22:48:19.292Z,19.40
2019-02-17T22:50:47.876Z,19.62
2019-02-17T22:53:16.339Z,20.35
2019-02-17T22:55:44.794Z,19.35
2019-02-17T22:58:13.325Z,20.37
2019-02-17T23:00:57.846Z,18.52
2019-02-17T23:03:26.754Z,20.62
2019-02-17T23:05:55.246Z,19.55
2019-02-17T23:08:23.726Z,19.17
2019-02-17T23:10:52.255Z,20.82
2019-02-17T23:13:20.707Z,19.32
2019-02-17T23:15:49.267Z,21.62
2019-02-17T23:18:17.761Z,21.48
2019-02-17T23:20:46.222Z,20.08
2019-02-17T23:23:14.675Z,20.85
2019-02-17T23:25:43.169Z,21.97
2019-02-17T23:28:11.612Z,21.05
2019-02-17T23:30:40.158Z,20.75
2019-02-17T23:33:08.559Z,19.62
2019-02-17T23:35:37.018Z,20.75
2019-02-17T23:38:05.601Z,21.02
2019-02-17T23:40:34.184Z,21.10
2019-02-17T23:43:02.650Z,20.55
2019-02-17T23:45:31.245Z,18.90
2019-02-17T23:47:59.694Z,18.92
2019-02-17T23:50:28.205Z,19.55
2019-02-17T23:52:56.692Z,19.87
2019-02-17T23:55:25.476Z,20.97
2019-02-17T23:57:54.015Z,18.48
